AirNav   Phillips 66 Aviation Fuel
 
 639 users online  

4O6 Cherokee Seaplane Base
Afton, Oklahoma, USA

GOING TO AFTON?


FAA INFORMATION EFFECTIVE 03 JANUARY 2019

Location

FAA Identifier: 4O6
Lat/Long: 36-35-00.2810N / 094-55-00.8500W
36-35.004683N / 094-55.014167W
36.5834114 / -94.9169028
(estimated)
Elevation: 739 ft. / 225.2 m (surveyed)
Variation: 05E (1985)
From city: 7 miles SSE of AFTON, OK
Time zone: UTC -6 (UTC -5 during Daylight Saving Time)
Zip code: 74331

Seaplane Base Operations

Seaplane Base use: Open to the public
Control tower: no
ARTCC: KANSAS CITY CENTER
FSS: MC ALESTER FLIGHT SERVICE STATION
NOTAMs facility: MLC (NOTAM-D service available)
Attendance: UNATNDD
Wind indicator: yes
Segmented circle: no

Seaplane Base Communications

CTAF: 122.9
WX AWOS-3 at GMJ (9 nm E): 119.025 (918-786-8350)

Nearby radio navigation aids

VOR radial/distance  VOR name  Freq  Var
EOSr229/27.9NEOSHO VOR/DME117.3007E
OSWr150/37.1OSWEGO VOR/DME117.6008E

 
NDB name  Hdg/Dist  Freq  Var  ID
SILOAM SPRINGS315/31.428404ESLG ... .-.. --.
TAHLEQUAH001/39.621505ETQH - --.- ....

Seaplane Base Services

Airframe service: NONE
Powerplant service: NONE
Bottled oxygen: NONE
Bulk oxygen: NONE

Runway Information

Runway ALL/WAY

Dimensions: 10000 x 800 ft. / 3048 x 244 m
Surface: water
RUNWAY ALL  RUNWAY WAY
Traffic pattern: leftleft

Runway NE/SW

Dimensions: 4000 x 200 ft. / 1219 x 61 m
Surface: water
RUNWAY NE  RUNWAY SW
Traffic pattern: leftleft

Seaplane Base Ownership and Management from official FAA records

Ownership: Privately-owned
Owner: R. A. BILLINGSLEY
30318 S. 4540 RD.
AFTON, OK 74331
Phone 918-782-2911
Manager: R. A. BILLINGSLEY
30318 S. 4540 RD.
AFTON, OK 74331
Phone 918-782-2911

Seaplane Base Operational Statistics

Aircraft based on the field: 2
Helicopters: 2
    
Aircraft operations: avg 75/month *
100% local general aviation
* for 12-month period ending 29 December 2016

Instrument Procedures

There are no published instrument procedures at 4O6.

Some nearby airports with instrument procedures:

1K8 - South Grand Lake Regional Airport (5 nm SW)
KGMJ - Grove Municipal Airport (9 nm E)
KMIO - Miami Regional Airport (20 nm N)
5M5 - Crystal Lake Airport (27 nm SE)
KEOS - Neosho Hugh Robinson Airport (29 nm NE)
 
Loc | Ops | Rwys | IFR | FBO | Links
Com | Nav | Svcs | Stats | Notes
Area around 4O6 (Cherokee Seaplane Base)
 
Road maps at: MapQuest Bing Google
 
Aerial photo
No photo
 
Sectional chart

 
Airport distance calculator
Flying to Cherokee Seaplane Base? Find the distance to fly.

From to 4O6

Sunrise and sunset
Times for 18-Jan-2019
 Local
(UTC-6)
 Zulu
(UTC)
Morning civil twilight07:0313:03
Sunrise07:3113:31
Sunset17:2923:29
Evening civil twilight17:5723:57

Current date and time
Zulu (UTC)  18-Jan-2019 12:56:58
Local (UTC-6)  18-Jan-2019 06:56:58
 
METAR
KGMJ 
9nm E 
181235Z AUTO 12004KT 7SM OVC008 05/03 A3000 RMK AO2
TAF
KXNA 
35nm SE 
181134Z 1812/1912 13006KT P6SM OVC005 TEMPO 1812/1815 2SM BR OVC004 FM181600 16014G22KT P6SM BKN015 TEMPO 1902/1906 5SM -TSRA BR BKN012CB FM190900 33017G24KT 4SM -SHRA BR OVC007
KJLN 
39nm NE 
181136Z 1812/1912 13006KT 6SM BR OVC005 FM181500 16015G20KT P6SM OVC007 FM181900 16014G22KT P6SM OVC020 FM190000 15010KT 4SM -RA OVC010 WS020/19040KT FM190700 34018G28KT 4SM -RA OVC007 FM190900 34021G35KT 4SM -RASN OVC011
KROG 
42nm E 
181134Z 1812/1912 12008KT P6SM OVC005 TEMPO 1812/1815 2SM BR OVC004 FM181600 16014G22KT P6SM BKN015 TEMPO 1902/1906 5SM -TSRA BR BKN012CB FM190900 33017G24KT 4SM -SHRA BR OVC007
NOTAMs
Click for the latest NOTAMs
NOTAMs are issued by the DoD/FAA and will open in a separate window not controlled by AirNav.

 

 
 

Would you like to see your business listed on this page?

 If your business provides an interesting product or service to pilots, flight crews, aircraft, or users of the Cherokee Seaplane Base, you should consider listing it here.  To start the listing process, click on the button below
 
Add a business
 

Other Pages about Cherokee Seaplane Base

Update a link
 
Copyright © AirNav, LLC. All rights reserved. Privacy Policy  Contact